sensor_id;sensor_type;location;lat;lon;timestamp;temperature;humidity
19037;DHT22;9651;49.138;8.900;2023-09-18T00:03:29;21.30;99.90
19037;DHT22;9651;49.138;8.900;2023-09-18T00:07:30;21.40;99.90
19037;DHT22;9651;49.138;8.900;2023-09-18T00:11:34;21.50;99.90
19037;DHT22;9651;49.138;8.900;2023-09-18T00:15:36;21.60;99.90
19037;DHT22;9651;49.138;8.900;2023-09-18T00:19:39;21.80;99.90
19037;DHT22;9651;49.138;8.900;2023-09-18T00:23:40;22.00;99.90
19037;DHT22;9651;49.138;8.900;2023-09-18T00:27:44;21.90;99.90
19037;DHT22;9651;49.138;8.900;2023-09-18T00:31:45;21.90;99.90
19037;DHT22;9651;49.138;8.900;2023-09-18T00:35:48;22.00;99.90
19037;DHT22;9651;49.138;8.900;2023-09-18T00:39:50;22.10;99.90
19037;DHT22;9651;49.138;8.900;2023-09-18T00:43:54;22.20;99.90
19037;DHT22;9651;49.138;8.900;2023-09-18T00:47:56;22.20;99.90
19037;DHT22;9651;49.138;8.900;2023-09-18T00:51:58;22.10;99.90
19037;DHT22;9651;49.138;8.900;2023-09-18T00:56:00;22.00;99.90
19037;DHT22;9651;49.138;8.900;2023-09-18T01:00:06;21.90;99.90
19037;DHT22;9651;49.138;8.900;2023-09-18T01:04:09;21.80;99.90
19037;DHT22;9651;49.138;8.900;2023-09-18T01:08:13;21.80;99.90
19037;DHT22;9651;49.138;8.900;2023-09-18T01:12:18;21.80;99.90
19037;DHT22;9651;49.138;8.900;2023-09-18T01:16:25;21.80;99.90
19037;DHT22;9651;49.138;8.900;2023-09-18T01:20:29;21.80;99.90
19037;DHT22;9651;49.138;8.900;2023-09-18T01:24:32;21.80;99.90
19037;DHT22;9651;49.138;8.900;2023-09-18T01:28:34;21.70;99.90
19037;DHT22;9651;49.138;8.900;2023-09-18T01:32:38;21.80;99.90
19037;DHT22;9651;49.138;8.900;2023-09-18T01:36:41;21.90;99.90
19037;DHT22;9651;49.138;8.900;2023-09-18T01:40:45;22.00;99.90
19037;DHT22;9651;49.138;8.900;2023-09-18T01:44:47;22.00;99.90
19037;DHT22;9651;49.138;8.900;2023-09-18T01:48:49;22.10;99.90
19037;DHT22;9651;49.138;8.900;2023-09-18T01:52:52;22.30;99.90
19037;DHT22;9651;49.138;8.900;2023-09-18T01:56:56;22.30;99.90
19037;DHT22;9651;49.138;8.900;2023-09-18T02:01:00;22.30;99.90
19037;DHT22;9651;49.138;8.900;2023-09-18T02:05:02;22.30;99.90
19037;DHT22;9651;49.138;8.900;2023-09-18T02:09:04;22.30;99.90
19037;DHT22;9651;49.138;8.900;2023-09-18T02:13:10;22.10;99.90
19037;DHT22;9651;49.138;8.900;2023-09-18T02:17:12;22.00;99.90
19037;DHT22;9651;49.138;8.900;2023-09-18T02:21:18;21.90;99.90
19037;DHT22;9651;49.138;8.900;2023-09-18T02:25:21;21.80;99.90
19037;DHT22;9651;49.138;8.900;2023-09-18T02:29:24;21.70;99.90
19037;DHT22;9651;49.138;8.900;2023-09-18T02:33:25;21.50;99.90
19037;DHT22;9651;49.138;8.900;2023-09-18T02:37:27;21.30;99.90
19037;DHT22;9651;49.138;8.900;2023-09-18T02:41:30;21.30;99.90
19037;DHT22;9651;49.138;8.900;2023-09-18T02:45:33;21.10;99.90
19037;DHT22;9651;49.138;8.900;2023-09-18T02:49:35;20.90;99.90
19037;DHT22;9651;49.138;8.900;2023-09-18T02:53:38;20.80;99.90
19037;DHT22;9651;49.138;8.900;2023-09-18T02:57:40;20.60;99.90
19037;DHT22;9651;49.138;8.900;2023-09-18T03:01:43;20.40;99.90
19037;DHT22;9651;49.138;8.900;2023-09-18T03:05:45;20.30;99.90
19037;DHT22;9651;49.138;8.900;2023-09-18T03:09:47;20.30;99.90
19037;DHT22;9651;49.138;8.900;2023-09-18T03:13:49;20.10;99.90
19037;DHT22;9651;49.138;8.900;2023-09-18T03:17:54;20.10;99.90
19037;DHT22;9651;49.138;8.900;2023-09-18T03:21:56;20.00;99.90
19037;DHT22;9651;49.138;8.900;2023-09-18T03:25:58;20.00;99.90
19037;DHT22;9651;49.138;8.900;2023-09-18T03:30:01;20.00;99.90
19037;DHT22;9651;49.138;8.900;2023-09-18T03:34:04;20.00;99.90
19037;DHT22;9651;49.138;8.900;2023-09-18T03:38:06;20.00;99.90
19037;DHT22;9651;49.138;8.900;2023-09-18T03:42:08;20.00;99.90
19037;DHT22;9651;49.138;8.900;2023-09-18T03:46:11;20.10;99.90
19037;DHT22;9651;49.138;8.900;2023-09-18T03:50:20;20.20;99.90
19037;DHT22;9651;49.138;8.900;2023-09-18T03:54:22;20.20;99.90
19037;DHT22;9651;49.138;8.900;2023-09-18T03:58:24;20.30;99.90
19037;DHT22;9651;49.138;8.900;2023-09-18T04:02:26;20.40;99.90
19037;DHT22;9651;49.138;8.900;2023-09-18T04:06:36;20.40;99.90
19037;DHT22;9651;49.138;8.900;2023-09-18T04:10:38;20.50;99.90
19037;DHT22;9651;49.138;8.900;2023-09-18T04:14:40;20.50;99.90
19037;DHT22;9651;49.138;8.900;2023-09-18T04:18:41;20.60;99.90
19037;DHT22;9651;49.138;8.900;2023-09-18T04:22:46;20.60;99.90
19037;DHT22;9651;49.138;8.900;2023-09-18T04:26:50;20.70;99.90
19037;DHT22;9651;49.138;8.900;2023-09-18T04:30:52;20.70;99.90
19037;DHT22;9651;49.138;8.900;2023-09-18T04:34:55;20.60;99.90
19037;DHT22;9651;49.138;8.900;2023-09-18T04:38:59;20.50;99.90
19037;DHT22;9651;49.138;8.900;2023-09-18T04:43:01;20.40;99.90
19037;DHT22;9651;49.138;8.900;2023-09-18T04:47:05;20.30;99.90
19037;DHT22;9651;49.138;8.900;2023-09-18T04:51:07;20.30;99.90
19037;DHT22;9651;49.138;8.900;2023-09-18T04:55:10;20.20;99.90
19037;DHT22;9651;49.138;8.900;2023-09-18T04:59:12;20.10;99.90
19037;DHT22;9651;49.138;8.900;2023-09-18T05:03:16;20.10;99.90
19037;DHT22;9651;49.138;8.900;2023-09-18T05:07:18;20.00;99.90
19037;DHT22;9651;49.138;8.900;2023-09-18T05:11:23;20.00;99.90
19037;DHT22;9651;49.138;8.900;2023-09-18T05:15:24;20.00;99.90
19037;DHT22;9651;49.138;8.900;2023-09-18T05:19:29;19.90;99.90
19037;DHT22;9651;49.138;8.900;2023-09-18T05:23:31;19.90;99.90
19037;DHT22;9651;49.138;8.900;2023-09-18T05:27:34;19.90;99.90
19037;DHT22;9651;49.138;8.900;2023-09-18T05:31:36;19.90;99.90
19037;DHT22;9651;49.138;8.900;2023-09-18T05:35:41;19.90;99.90
19037;DHT22;9651;49.138;8.900;2023-09-18T05:39:43;19.90;99.90
19037;DHT22;9651;49.138;8.900;2023-09-18T05:43:46;19.80;99.90
19037;DHT22;9651;49.138;8.900;2023-09-18T05:47:48;19.80;99.90
19037;DHT22;9651;49.138;8.900;2023-09-18T05:51:50;19.90;99.90
19037;DHT22;9651;49.138;8.900;2023-09-18T05:55:52;20.00;99.90
19037;DHT22;9651;49.138;8.900;2023-09-18T05:59:56;20.10;99.90
19037;DHT22;9651;49.138;8.900;2023-09-18T06:03:58;20.20;99.90
19037;DHT22;9651;49.138;8.900;2023-09-18T06:07:59;20.30;99.90
19037;DHT22;9651;49.138;8.900;2023-09-18T06:12:01;20.50;99.90
19037;DHT22;9651;49.138;8.900;2023-09-18T06:16:06;20.70;99.90
19037;DHT22;9651;49.138;8.900;2023-09-18T06:20:10;20.80;99.90
19037;DHT22;9651;49.138;8.900;2023-09-18T06:24:13;20.90;99.90
19037;DHT22;9651;49.138;8.900;2023-09-18T06:28:15;21.00;99.90
19037;DHT22;9651;49.138;8.900;2023-09-18T06:32:18;21.00;99.90
19037;DHT22;9651;49.138;8.900;2023-09-18T06:36:20;20.80;99.90
19037;DHT22;9651;49.138;8.900;2023-09-18T06:40:21;20.70;99.90
19037;DHT22;9651;49.138;8.900;2023-09-18T06:44:23;20.60;99.90
19037;DHT22;9651;49.138;8.900;2023-09-18T06:48:27;20.50;99.90
19037;DHT22;9651;49.138;8.900;2023-09-18T06:52:32;20.60;99.90
19037;DHT22;9651;49.138;8.900;2023-09-18T06:56:34;20.70;99.90
19037;DHT22;9651;49.138;8.900;2023-09-18T07:00:36;20.70;99.90
19037;DHT22;9651;49.138;8.900;2023-09-18T07:04:41;20.80;99.90
19037;DHT22;9651;49.138;8.900;2023-09-18T07:08:46;20.80;99.90
19037;DHT22;9651;49.138;8.900;2023-09-18T07:12:49;20.80;99.90
19037;DHT22;9651;49.138;8.900;2023-09-18T07:16:51;20.80;99.90
19037;DHT22;9651;49.138;8.900;2023-09-18T07:20:55;20.80;99.90
19037;DHT22;9651;49.138;8.900;2023-09-18T07:24:56;20.70;99.90
19037;DHT22;9651;49.138;8.900;2023-09-18T07:28:58;20.60;99.90
19037;DHT22;9651;49.138;8.900;2023-09-18T07:33:01;20.60;99.90
19037;DHT22;9651;49.138;8.900;2023-09-18T07:37:05;20.70;99.90
19037;DHT22;9651;49.138;8.900;2023-09-18T07:41:06;20.60;99.90
19037;DHT22;9651;49.138;8.900;2023-09-18T07:45:09;20.70;99.90
19037;DHT22;9651;49.138;8.900;2023-09-18T07:49:10;20.70;99.90
19037;DHT22;9651;49.138;8.900;2023-09-18T07:53:14;20.80;99.90
19037;DHT22;9651;49.138;8.900;2023-09-18T07:57:16;20.90;99.90
19037;DHT22;9651;49.138;8.900;2023-09-18T08:01:19;20.90;99.90
19037;DHT22;9651;49.138;8.900;2023-09-18T08:05:22;21.00;99.90
19037;DHT22;9651;49.138;8.900;2023-09-18T08:09:26;21.00;99.90
19037;DHT22;9651;49.138;8.900;2023-09-18T08:13:30;21.00;99.90
19037;DHT22;9651;49.138;8.900;2023-09-18T08:17:31;21.10;99.90
19037;DHT22;9651;49.138;8.900;2023-09-18T08:21:33;21.10;99.90
19037;DHT22;9651;49.138;8.900;2023-09-18T08:25:37;21.10;99.90
19037;DHT22;9651;49.138;8.900;2023-09-18T08:29:40;21.10;99.90
19037;DHT22;9651;49.138;8.900;2023-09-18T08:33:42;21.00;99.90
19037;DHT22;9651;49.138;8.900;2023-09-18T08:37:45;21.10;99.90
19037;DHT22;9651;49.138;8.900;2023-09-18T08:41:50;21.10;99.90
19037;DHT22;9651;49.138;8.900;2023-09-18T08:45:55;21.20;99.90
19037;DHT22;9651;49.138;8.900;2023-09-18T08:50:02;21.50;99.90
19037;DHT22;9651;49.138;8.900;2023-09-18T08:54:05;21.70;99.90
19037;DHT22;9651;49.138;8.900;2023-09-18T08:58:09;21.80;99.90
19037;DHT22;9651;49.138;8.900;2023-09-18T09:02:11;21.90;99.90
19037;DHT22;9651;49.138;8.900;2023-09-18T09:06:13;21.90;99.90
19037;DHT22;9651;49.138;8.900;2023-09-18T09:10:15;21.70;99.90
19037;DHT22;9651;49.138;8.900;2023-09-18T09:14:18;21.70;99.90
19037;DHT22;9651;49.138;8.900;2023-09-18T09:18:23;21.50;99.90
19037;DHT22;9651;49.138;8.900;2023-09-18T09:22:26;21.30;99.90
19037;DHT22;9651;49.138;8.900;2023-09-18T09:26:27;21.20;99.90
19037;DHT22;9651;49.138;8.900;2023-09-18T09:30:32;21.20;99.90
19037;DHT22;9651;49.138;8.900;2023-09-18T09:34:34;21.20;99.90
19037;DHT22;9651;49.138;8.900;2023-09-18T09:38:37;21.10;99.90
19037;DHT22;9651;49.138;8.900;2023-09-18T09:42:40;21.30;99.90
19037;DHT22;9651;49.138;8.900;2023-09-18T09:46:47;21.40;99.90
19037;DHT22;9651;49.138;8.900;2023-09-18T09:50:49;21.50;99.90
19037;DHT22;9651;49.138;8.900;2023-09-18T09:54:52;21.70;99.90
19037;DHT22;9651;49.138;8.900;2023-09-18T09:59:00;21.80;99.90
19037;DHT22;9651;49.138;8.900;2023-09-18T10:03:06;21.70;99.90
19037;DHT22;9651;49.138;8.900;2023-09-18T10:07:09;21.70;99.90
19037;DHT22;9651;49.138;8.900;2023-09-18T10:11:13;21.90;99.90
19037;DHT22;9651;49.138;8.900;2023-09-18T10:15:18;22.10;99.90
19037;DHT22;9651;49.138;8.900;2023-09-18T10:19:28;22.20;99.90
19037;DHT22;9651;49.138;8.900;2023-09-18T10:23:44;22.10;99.90
19037;DHT22;9651;49.138;8.900;2023-09-18T10:27:48;22.10;99.90
19037;DHT22;9651;49.138;8.900;2023-09-18T10:31:54;22.10;99.90
19037;DHT22;9651;49.138;8.900;2023-09-18T10:35:58;22.30;99.90
19037;DHT22;9651;49.138;8.900;2023-09-18T10:40:02;22.50;99.90
19037;DHT22;9651;49.138;8.900;2023-09-18T10:44:06;22.70;99.90
19037;DHT22;9651;49.138;8.900;2023-09-18T10:48:09;22.80;99.90
19037;DHT22;9651;49.138;8.900;2023-09-18T10:52:13;22.70;99.90
19037;DHT22;9651;49.138;8.900;2023-09-18T10:56:15;22.70;99.90
19037;DHT22;9651;49.138;8.900;2023-09-18T11:00:17;22.80;99.90
19037;DHT22;9651;49.138;8.900;2023-09-18T11:04:23;22.90;99.90
19037;DHT22;9651;49.138;8.900;2023-09-18T11:08:31;22.90;99.90
19037;DHT22;9651;49.138;8.900;2023-09-18T11:12:44;22.90;99.90
19037;DHT22;9651;49.138;8.900;2023-09-18T11:16:49;23.10;99.90
19037;DHT22;9651;49.138;8.900;2023-09-18T11:21:06;23.20;99.90
19037;DHT22;9651;49.138;8.900;2023-09-18T11:25:38;23.40;99.90
19037;DHT22;9651;49.138;8.900;2023-09-18T11:29:40;23.50;99.90
19037;DHT22;9651;49.138;8.900;2023-09-18T11:33:42;23.50;99.90
19037;DHT22;9651;49.138;8.900;2023-09-18T11:37:45;23.80;99.90
19037;DHT22;9651;49.138;8.900;2023-09-18T11:41:49;24.10;99.90
19037;DHT22;9651;49.138;8.900;2023-09-18T11:45:52;24.20;99.90
19037;DHT22;9651;49.138;8.900;2023-09-18T11:49:56;24.30;99.90
19037;DHT22;9651;49.138;8.900;2023-09-18T11:53:59;24.50;99.90
19037;DHT22;9651;49.138;8.900;2023-09-18T11:58:04;24.50;99.90
19037;DHT22;9651;49.138;8.900;2023-09-18T12:02:09;24.50;99.90
19037;DHT22;9651;49.138;8.900;2023-09-18T12:06:21;24.40;99.90
19037;DHT22;9651;49.138;8.900;2023-09-18T12:10:23;24.30;99.90
19037;DHT22;9651;49.138;8.900;2023-09-18T12:14:30;24.10;99.90
19037;DHT22;9651;49.138;8.900;2023-09-18T12:18:32;24.10;99.90
19037;DHT22;9651;49.138;8.900;2023-09-18T12:22:35;24.40;99.90
19037;DHT22;9651;49.138;8.900;2023-09-18T12:26:37;24.40;99.90
19037;DHT22;9651;49.138;8.900;2023-09-18T12:30:41;24.50;99.90
19037;DHT22;9651;49.138;8.900;2023-09-18T12:34:43;24.60;99.90
19037;DHT22;9651;49.138;8.900;2023-09-18T12:38:55;24.90;99.90
19037;DHT22;9651;49.138;8.900;2023-09-18T12:42:57;24.80;99.90
19037;DHT22;9651;49.138;8.900;2023-09-18T12:47:01;24.80;99.90
19037;DHT22;9651;49.138;8.900;2023-09-18T12:51:04;24.90;99.90
19037;DHT22;9651;49.138;8.900;2023-09-18T12:55:07;24.80;99.90
19037;DHT22;9651;49.138;8.900;2023-09-18T12:59:09;25.20;99.90
19037;DHT22;9651;49.138;8.900;2023-09-18T13:03:15;25.40;99.90
19037;DHT22;9651;49.138;8.900;2023-09-18T13:07:16;25.40;99.90
19037;DHT22;9651;49.138;8.900;2023-09-18T13:11:19;25.50;99.90
19037;DHT22;9651;49.138;8.900;2023-09-18T13:15:27;26.20;99.90
19037;DHT22;9651;49.138;8.900;2023-09-18T13:19:31;26.20;99.90
19037;DHT22;9651;49.138;8.900;2023-09-18T13:23:33;25.70;99.90
19037;DHT22;9651;49.138;8.900;2023-09-18T13:27:35;25.30;99.90
19037;DHT22;9651;49.138;8.900;2023-09-18T13:31:37;25.10;99.90
19037;DHT22;9651;49.138;8.900;2023-09-18T13:35:41;25.10;99.90
19037;DHT22;9651;49.138;8.900;2023-09-18T13:39:43;25.60;99.90
19037;DHT22;9651;49.138;8.900;2023-09-18T13:43:46;26.00;99.90
19037;DHT22;9651;49.138;8.900;2023-09-18T13:47:49;25.50;99.90
19037;DHT22;9651;49.138;8.900;2023-09-18T13:51:52;24.80;99.90
19037;DHT22;9651;49.138;8.900;2023-09-18T13:55:55;24.60;99.90
19037;DHT22;9651;49.138;8.900;2023-09-18T13:59:57;24.60;99.90
19037;DHT22;9651;49.138;8.900;2023-09-18T14:03:59;24.80;99.90
19037;DHT22;9651;49.138;8.900;2023-09-18T14:08:02;24.70;99.90
19037;DHT22;9651;49.138;8.900;2023-09-18T14:12:06;24.70;99.90
19037;DHT22;9651;49.138;8.900;2023-09-18T14:16:08;24.70;99.90
19037;DHT22;9651;49.138;8.900;2023-09-18T14:20:11;24.90;99.90
19037;DHT22;9651;49.138;8.900;2023-09-18T14:24:15;25.10;99.90
19037;DHT22;9651;49.138;8.900;2023-09-18T14:28:18;24.80;99.90
19037;DHT22;9651;49.138;8.900;2023-09-18T14:32:20;24.80;99.90
19037;DHT22;9651;49.138;8.900;2023-09-18T14:36:23;24.90;99.90
19037;DHT22;9651;49.138;8.900;2023-09-18T14:40:26;25.20;99.90
19037;DHT22;9651;49.138;8.900;2023-09-18T14:44:28;25.40;99.90
19037;DHT22;9651;49.138;8.900;2023-09-18T14:48:30;25.50;99.90
19037;DHT22;9651;49.138;8.900;2023-09-18T14:52:33;25.40;99.90
19037;DHT22;9651;49.138;8.900;2023-09-18T14:56:36;25.50;99.90
19037;DHT22;9651;49.138;8.900;2023-09-18T15:00:38;25.50;99.90
19037;DHT22;9651;49.138;8.900;2023-09-18T15:04:40;25.20;99.90
19037;DHT22;9651;49.138;8.900;2023-09-18T15:08:42;24.90;99.90
19037;DHT22;9651;49.138;8.900;2023-09-18T15:12:45;24.80;99.90
19037;DHT22;9651;49.138;8.900;2023-09-18T15:16:47;24.80;99.90
19037;DHT22;9651;49.138;8.900;2023-09-18T15:20:49;24.80;99.90
19037;DHT22;9651;49.138;8.900;2023-09-18T15:24:54;24.80;99.90
19037;DHT22;9651;49.138;8.900;2023-09-18T15:28:58;24.60;99.90
19037;DHT22;9651;49.138;8.900;2023-09-18T15:33:01;24.60;99.90
19037;DHT22;9651;49.138;8.900;2023-09-18T15:37:03;24.50;99.90
19037;DHT22;9651;49.138;8.900;2023-09-18T15:41:05;24.40;99.90
19037;DHT22;9651;49.138;8.900;2023-09-18T15:45:10;24.40;99.90
19037;DHT22;9651;49.138;8.900;2023-09-18T15:49:12;24.40;99.90
19037;DHT22;9651;49.138;8.900;2023-09-18T15:53:14;24.40;99.90
19037;DHT22;9651;49.138;8.900;2023-09-18T15:57:16;24.30;99.90
19037;DHT22;9651;49.138;8.900;2023-09-18T16:01:20;24.30;99.90
19037;DHT22;9651;49.138;8.900;2023-09-18T16:05:22;24.40;99.90
19037;DHT22;9651;49.138;8.900;2023-09-18T16:09:26;24.40;99.90
19037;DHT22;9651;49.138;8.900;2023-09-18T16:13:28;24.40;99.90
19037;DHT22;9651;49.138;8.900;2023-09-18T16:17:31;24.20;99.90
19037;DHT22;9651;49.138;8.900;2023-09-18T16:21:33;24.10;99.90
19037;DHT22;9651;49.138;8.900;2023-09-18T16:25:35;23.80;99.90
19037;DHT22;9651;49.138;8.900;2023-09-18T16:29:37;23.60;99.90
19037;DHT22;9651;49.138;8.900;2023-09-18T16:33:40;23.40;99.90
19037;DHT22;9651;49.138;8.900;2023-09-18T16:37:42;23.40;99.90
19037;DHT22;9651;49.138;8.900;2023-09-18T16:41:46;23.30;99.90
19037;DHT22;9651;49.138;8.900;2023-09-18T16:45:48;23.20;99.90
19037;DHT22;9651;49.138;8.900;2023-09-18T16:49:51;23.10;99.90
19037;DHT22;9651;49.138;8.900;2023-09-18T16:53:53;23.10;99.90
19037;DHT22;9651;49.138;8.900;2023-09-18T16:57:56;23.00;99.90
19037;DHT22;9651;49.138;8.900;2023-09-18T17:01:58;22.90;99.90
19037;DHT22;9651;49.138;8.900;2023-09-18T17:06:03;22.70;99.90
19037;DHT22;9651;49.138;8.900;2023-09-18T17:10:05;22.60;99.90
19037;DHT22;9651;49.138;8.900;2023-09-18T17:14:07;22.50;99.90
19037;DHT22;9651;49.138;8.900;2023-09-18T17:18:09;22.50;99.90
19037;DHT22;9651;49.138;8.900;2023-09-18T17:22:14;22.40;99.90
19037;DHT22;9651;49.138;8.900;2023-09-18T17:26:17;22.30;99.90
19037;DHT22;9651;49.138;8.900;2023-09-18T17:30:19;22.20;99.90
19037;DHT22;9651;49.138;8.900;2023-09-18T17:34:21;22.10;99.90
19037;DHT22;9651;49.138;8.900;2023-09-18T17:38:24;22.00;99.90
19037;DHT22;9651;49.138;8.900;2023-09-18T17:42:26;21.90;99.90
19037;DHT22;9651;49.138;8.900;2023-09-18T17:46:28;21.90;99.90
19037;DHT22;9651;49.138;8.900;2023-09-18T17:50:30;21.80;99.90
19037;DHT22;9651;49.138;8.900;2023-09-18T17:54:33;21.70;99.90
19037;DHT22;9651;49.138;8.900;2023-09-18T17:58:35;21.60;99.90
19037;DHT22;9651;49.138;8.900;2023-09-18T18:02:37;21.40;99.90
19037;DHT22;9651;49.138;8.900;2023-09-18T18:06:40;20.80;99.90
19037;DHT22;9651;49.138;8.900;2023-09-18T18:10:45;20.30;99.90
19037;DHT22;9651;49.138;8.900;2023-09-18T18:14:47;19.60;99.90
19037;DHT22;9651;49.138;8.900;2023-09-18T18:18:49;19.10;99.90
19037;DHT22;9651;49.138;8.900;2023-09-18T18:22:51;18.90;99.90
19037;DHT22;9651;49.138;8.900;2023-09-18T18:26:56;18.80;99.90
19037;DHT22;9651;49.138;8.900;2023-09-18T18:30:58;18.70;99.90
19037;DHT22;9651;49.138;8.900;2023-09-18T18:35:00;18.70;99.90
19037;DHT22;9651;49.138;8.900;2023-09-18T18:39:02;18.70;99.90
19037;DHT22;9651;49.138;8.900;2023-09-18T18:43:07;18.60;99.90
19037;DHT22;9651;49.138;8.900;2023-09-18T18:47:08;18.50;99.90
19037;DHT22;9651;49.138;8.900;2023-09-18T18:51:13;18.40;99.90
19037;DHT22;9651;49.138;8.900;2023-09-18T18:55:16;18.30;99.90
19037;DHT22;9651;49.138;8.900;2023-09-18T18:59:20;18.30;99.90
19037;DHT22;9651;49.138;8.900;2023-09-18T19:03:22;18.30;99.90
19037;DHT22;9651;49.138;8.900;2023-09-18T19:07:24;18.20;99.90
19037;DHT22;9651;49.138;8.900;2023-09-18T19:11:27;18.30;99.90
19037;DHT22;9651;49.138;8.900;2023-09-18T19:15:30;18.30;99.90
19037;DHT22;9651;49.138;8.900;2023-09-18T19:19:32;18.40;99.90
19037;DHT22;9651;49.138;8.900;2023-09-18T19:23:35;18.40;99.90
19037;DHT22;9651;49.138;8.900;2023-09-18T19:27:36;18.50;99.90
19037;DHT22;9651;49.138;8.900;2023-09-18T19:31:40;18.50;99.90
19037;DHT22;9651;49.138;8.900;2023-09-18T19:35:42;18.60;99.90
19037;DHT22;9651;49.138;8.900;2023-09-18T19:39:44;18.60;99.90
19037;DHT22;9651;49.138;8.900;2023-09-18T19:43:46;18.50;99.90
19037;DHT22;9651;49.138;8.900;2023-09-18T19:47:49;18.30;99.90
19037;DHT22;9651;49.138;8.900;2023-09-18T19:51:52;18.30;99.90
19037;DHT22;9651;49.138;8.900;2023-09-18T19:55:54;18.10;99.90
19037;DHT22;9651;49.138;8.900;2023-09-18T19:59:56;17.90;99.90
19037;DHT22;9651;49.138;8.900;2023-09-18T20:04:00;17.90;99.90
19037;DHT22;9651;49.138;8.900;2023-09-18T20:08:03;17.90;99.90
19037;DHT22;9651;49.138;8.900;2023-09-18T20:12:06;17.90;99.90
19037;DHT22;9651;49.138;8.900;2023-09-18T20:16:09;17.80;99.90
19037;DHT22;9651;49.138;8.900;2023-09-18T20:20:13;17.80;99.90
19037;DHT22;9651;49.138;8.900;2023-09-18T20:24:15;17.70;99.90
19037;DHT22;9651;49.138;8.900;2023-09-18T20:28:17;17.70;99.90
19037;DHT22;9651;49.138;8.900;2023-09-18T20:32:19;17.60;99.90
19037;DHT22;9651;49.138;8.900;2023-09-18T20:36:22;17.50;99.90
19037;DHT22;9651;49.138;8.900;2023-09-18T20:40:24;17.50;99.90
19037;DHT22;9651;49.138;8.900;2023-09-18T20:44:26;17.50;99.90
19037;DHT22;9651;49.138;8.900;2023-09-18T20:48:28;17.50;99.90
19037;DHT22;9651;49.138;8.900;2023-09-18T20:52:32;17.40;99.90
19037;DHT22;9651;49.138;8.900;2023-09-18T20:56:36;17.30;99.90
19037;DHT22;9651;49.138;8.900;2023-09-18T21:00:38;17.30;99.90
19037;DHT22;9651;49.138;8.900;2023-09-18T21:04:40;17.40;99.90
19037;DHT22;9651;49.138;8.900;2023-09-18T21:08:44;17.40;99.90
19037;DHT22;9651;49.138;8.900;2023-09-18T21:12:46;17.40;99.90
19037;DHT22;9651;49.138;8.900;2023-09-18T21:16:48;17.30;99.90
19037;DHT22;9651;49.138;8.900;2023-09-18T21:20:51;17.20;99.90
19037;DHT22;9651;49.138;8.900;2023-09-18T21:24:55;17.20;99.90
19037;DHT22;9651;49.138;8.900;2023-09-18T21:28:56;17.10;99.90
19037;DHT22;9651;49.138;8.900;2023-09-18T21:32:59;17.00;99.90
19037;DHT22;9651;49.138;8.900;2023-09-18T21:37:01;17.00;99.90
19037;DHT22;9651;49.138;8.900;2023-09-18T21:41:04;16.90;99.90
19037;DHT22;9651;49.138;8.900;2023-09-18T21:45:06;16.90;99.90
19037;DHT22;9651;49.138;8.900;2023-09-18T21:49:09;17.00;99.90
19037;DHT22;9651;49.138;8.900;2023-09-18T21:53:11;17.00;99.90
19037;DHT22;9651;49.138;8.900;2023-09-18T21:57:15;17.00;99.90
19037;DHT22;9651;49.138;8.900;2023-09-18T22:01:17;17.00;99.90
19037;DHT22;9651;49.138;8.900;2023-09-18T22:05:21;16.90;99.90
19037;DHT22;9651;49.138;8.900;2023-09-18T22:09:23;16.90;99.90
19037;DHT22;9651;49.138;8.900;2023-09-18T22:13:27;16.90;99.90
19037;DHT22;9651;49.138;8.900;2023-09-18T22:17:29;16.70;99.90
19037;DHT22;9651;49.138;8.900;2023-09-18T22:21:31;16.70;99.90
19037;DHT22;9651;49.138;8.900;2023-09-18T22:25:36;16.70;99.90
19037;DHT22;9651;49.138;8.900;2023-09-18T22:29:40;16.60;99.90
19037;DHT22;9651;49.138;8.900;2023-09-18T22:33:42;16.60;99.90
19037;DHT22;9651;49.138;8.900;2023-09-18T22:37:45;16.60;99.90
19037;DHT22;9651;49.138;8.900;2023-09-18T22:55:12;16.60;99.90
19037;DHT22;9651;49.138;8.900;2023-09-18T22:59:14;16.60;99.90
19037;DHT22;9651;49.138;8.900;2023-09-18T23:03:16;16.70;99.90
19037;DHT22;9651;49.138;8.900;2023-09-18T23:07:18;16.80;99.90
19037;DHT22;9651;49.138;8.900;2023-09-18T23:11:22;16.90;99.90
19037;DHT22;9651;49.138;8.900;2023-09-18T23:15:24;17.00;99.90
19037;DHT22;9651;49.138;8.900;2023-09-18T23:19:28;17.00;99.90
19037;DHT22;9651;49.138;8.900;2023-09-18T23:23:30;17.00;99.90
19037;DHT22;9651;49.138;8.900;2023-09-18T23:27:37;17.10;99.90
19037;DHT22;9651;49.138;8.900;2023-09-18T23:31:39;17.10;99.90
19037;DHT22;9651;49.138;8.900;2023-09-18T23:35:43;17.10;99.90
19037;DHT22;9651;49.138;8.900;2023-09-18T23:39:45;17.20;99.90
19037;DHT22;9651;49.138;8.900;2023-09-18T23:43:51;17.20;99.90
19037;DHT22;9651;49.138;8.900;2023-09-18T23:47:53;17.20;99.90
19037;DHT22;9651;49.138;8.900;2023-09-18T23:51:55;17.30;99.90
19037;DHT22;9651;49.138;8.900;2023-09-18T23:55:58;17.30;99.90
